Time,TemperatureF,DewpointF,PressureIn,WindDirection,WindDirectionDegrees,WindSpeedMPH,WindSpeedGustMPH,Humidity,HourlyPrecipIn,Conditions,Clouds,dailyrainin,SolarRadiationWatts/m^2,SoftwareType,DateUTC
2013-01-13 00:00:00,60.9,58.6,30.12,SW,218,0.0,0.0,92,0.00,,---,0.00,0.00,VWS V14.01,2013-01-13 05:00:00,
2013-01-13 00:01:00,60.9,58.6,30.12,SW,218,0.0,0.0,92,0.00,,---,0.00,0.00,VWS V14.01,2013-01-13 05:01:00,
2013-01-13 00:03:00,60.9,58.6,30.12,SW,218,0.0,0.0,92,0.00,,---,0.00,0.00,VWS V14.01,2013-01-13 05:03:00,
2013-01-13 00:08:00,60.8,58.5,30.12,SW,218,0.0,0.0,92,0.00,,---,0.00,0.00,VWS V14.01,2013-01-13 05:08:00,
2013-01-13 00:13:00,60.8,58.8,30.12,SW,218,0.0,0.0,93,0.00,,---,0.00,0.00,VWS V14.01,2013-01-13 05:13:00,
2013-01-13 00:19:00,60.7,58.7,30.12,SW,218,0.0,0.0,93,0.00,,---,0.00,0.00,VWS V14.01,2013-01-13 05:19:00,
2013-01-13 00:24:00,60.7,58.7,30.12,SW,218,0.0,0.0,93,0.00,,---,0.00,0.00,VWS V14.01,2013-01-13 05:24:00,
2013-01-13 00:29:00,60.6,58.6,30.11,SW,218,1.0,1.0,93,0.00,,---,0.00,0.00,VWS V14.01,2013-01-13 05:29:00,
2013-01-13 00:34:00,60.8,59.1,30.11,SW,218,0.0,1.0,94,0.00,,---,0.00,0.00,VWS V14.01,2013-01-13 05:34:00,
2013-01-13 00:39:00,60.9,59.2,30.11,SW,218,0.0,0.0,94,0.00,,---,0.00,0.00,VWS V14.01,2013-01-13 05:39:00,
2013-01-13 00:44:00,60.9,59.2,30.11,SW,218,0.0,0.0,94,0.00,,---,0.00,0.00,VWS V14.01,2013-01-13 05:44:00,
2013-01-13 00:49:00,60.9,59.2,30.12,SW,218,0.0,0.0,94,0.00,,---,0.00,0.00,VWS V14.01,2013-01-13 05:49:00,
2013-01-13 00:54:00,60.7,59.0,30.12,SW,218,0.0,0.0,94,0.00,,---,0.00,0.00,VWS V14.01,2013-01-13 05:54:00,
2013-01-13 00:59:00,60.4,58.7,30.11,SW,218,0.0,0.0,94,0.00,,---,0.00,0.00,VWS V14.01,2013-01-13 05:59:00,
2013-01-13 01:04:00,60.2,58.2,30.11,SW,218,0.0,0.0,93,0.00,,---,0.00,0.00,VWS V14.01,2013-01-13 06:04:00,
2013-01-13 01:09:00,60.0,58.3,30.11,SW,218,0.0,0.0,94,0.00,,---,0.00,0.00,VWS V14.01,2013-01-13 06:09:00,
2013-01-13 01:14:00,60.0,58.3,30.10,SW,218,0.0,0.0,94,0.00,,---,0.00,0.00,VWS V14.01,2013-01-13 06:14:00,
2013-01-13 01:19:00,60.0,58.3,30.10,SW,218,0.0,0.0,94,0.00,,---,0.00,0.00,VWS V14.01,2013-01-13 06:19:00,
2013-01-13 01:25:00,59.9,58.2,30.10,SW,218,0.0,0.0,94,0.00,,---,0.00,0.00,VWS V14.01,2013-01-13 06:25:00,
2013-01-13 01:30:00,59.9,58.2,30.11,SW,218,0.0,0.0,94,0.00,,---,0.00,0.00,VWS V14.01,2013-01-13 06:30:00,
2013-01-13 01:35:00,59.7,58.0,30.10,SW,218,0.0,0.0,94,0.00,,---,0.00,0.00,VWS V14.01,2013-01-13 06:35:00,
2013-01-13 01:40:00,59.5,57.8,30.11,SW,218,0.0,0.0,94,0.00,,---,0.00,0.00,VWS V14.01,2013-01-13 06:40:00,
2013-01-13 01:45:00,59.4,57.7,30.11,SW,218,0.0,0.0,94,0.00,,---,0.00,0.00,VWS V14.01,2013-01-13 06:45:00,
2013-01-13 01:50:00,59.3,57.6,30.11,SW,218,0.0,0.0,94,0.00,,---,0.00,0.00,VWS V14.01,2013-01-13 06:50:00,
2013-01-13 01:55:00,59.2,57.5,30.11,SW,218,0.0,0.0,94,0.00,,---,0.00,0.00,VWS V14.01,2013-01-13 06:55:00,
2013-01-13 02:00:00,59.2,57.5,30.12,SW,218,0.0,0.0,94,0.00,,---,0.00,0.00,VWS V14.01,2013-01-13 07:00:00,
2013-01-13 02:05:00,59.1,57.4,30.11,SW,218,0.0,0.0,94,0.00,,---,0.00,0.00,VWS V14.01,2013-01-13 07:05:00,
2013-01-13 02:10:00,59.2,57.5,30.11,SW,218,0.0,0.0,94,0.00,,---,0.00,0.00,VWS V14.01,2013-01-13 07:10:00,
2013-01-13 02:15:00,59.1,57.4,30.12,SW,218,0.0,0.0,94,0.00,,---,0.00,0.00,VWS V14.01,2013-01-13 07:15:00,
2013-01-13 02:20:00,59.0,57.3,30.12,SW,218,0.0,0.0,94,0.00,,---,0.00,0.00,VWS V14.01,2013-01-13 07:20:00,
2013-01-13 02:25:00,59.0,57.6,30.12,SW,218,0.0,0.0,95,0.00,,---,0.00,0.00,VWS V14.01,2013-01-13 07:25:00,
2013-01-13 02:30:00,59.0,57.6,30.11,SW,218,0.0,0.0,95,0.00,,---,0.00,0.00,VWS V14.01,2013-01-13 07:30:00,
2013-01-13 02:35:00,59.0,57.6,30.11,SW,218,0.0,1.0,95,0.00,,---,0.00,0.00,VWS V14.01,2013-01-13 07:35:00,
2013-01-13 02:40:00,59.0,57.6,30.12,SW,218,0.0,0.0,95,0.00,,---,0.00,0.00,VWS V14.01,2013-01-13 07:40:00,
2013-01-13 02:45:00,59.0,57.6,30.11,SW,218,0.0,0.0,95,0.00,,---,0.00,0.00,VWS V14.01,2013-01-13 07:45:00,
2013-01-13 02:50:00,58.9,57.5,30.11,SW,218,0.0,0.0,95,0.00,,---,0.00,0.00,VWS V14.01,2013-01-13 07:50:00,
2013-01-13 02:55:00,58.8,57.4,30.11,SW,218,0.0,0.0,95,0.00,,---,0.00,0.00,VWS V14.01,2013-01-13 07:55:00,
2013-01-13 03:00:00,58.8,57.4,30.11,SW,218,0.0,0.0,95,0.00,,---,0.00,0.00,VWS V14.01,2013-01-13 08:00:00,
2013-01-13 03:06:00,58.7,57.3,30.11,SW,218,0.0,0.0,95,0.00,,---,0.00,0.00,VWS V14.01,2013-01-13 08:06:00,
2013-01-13 03:11:00,58.7,57.3,30.11,SW,218,0.0,0.0,95,0.00,,---,0.00,0.00,VWS V14.01,2013-01-13 08:11:00,
2013-01-13 03:16:00,58.7,57.3,30.11,SW,218,0.0,0.0,95,0.00,,---,0.00,0.00,VWS V14.01,2013-01-13 08:16:00,
2013-01-13 03:21:00,58.6,57.2,30.11,SW,218,0.0,0.0,95,0.00,,---,0.00,0.00,VWS V14.01,2013-01-13 08:21:00,
2013-01-13 03:26:00,58.6,57.2,30.10,SW,218,0.0,0.0,95,0.00,,---,0.00,0.00,VWS V14.01,2013-01-13 08:26:00,
2013-01-13 03:31:00,58.4,57.0,30.10,SW,218,0.0,0.0,95,0.01,,---,0.01,0.00,VWS V14.01,2013-01-13 08:31:00,
2013-01-13 03:36:00,58.2,56.8,30.10,SW,218,0.0,0.0,95,0.01,,---,0.01,0.00,VWS V14.01,2013-01-13 08:36:00,
2013-01-13 03:41:00,57.9,56.5,30.10,SW,218,0.0,0.0,95,0.01,,---,0.01,0.00,VWS V14.01,2013-01-13 08:41:00,
2013-01-13 03:46:00,57.7,56.3,30.11,SW,218,0.0,0.0,95,0.01,,---,0.01,0.00,VWS V14.01,2013-01-13 08:46:00,
2013-01-13 03:51:00,57.6,56.2,30.11,SW,218,0.0,0.0,95,0.01,,---,0.01,0.00,VWS V14.01,2013-01-13 08:51:00,
2013-01-13 03:56:00,57.4,56.0,30.11,SW,218,0.0,0.0,95,0.01,,---,0.01,0.00,VWS V14.01,2013-01-13 08:56:00,
2013-01-13 04:01:00,56.9,55.2,30.11,SW,218,0.0,0.0,94,0.01,,---,0.01,0.00,VWS V14.01,2013-01-13 09:01:00,
2013-01-13 04:06:00,56.5,54.8,30.11,SW,218,0.0,0.0,94,0.01,,---,0.01,0.00,VWS V14.01,2013-01-13 09:06:00,
2013-01-13 04:11:00,56.3,54.6,30.11,SW,218,0.0,0.0,94,0.01,,---,0.01,0.00,VWS V14.01,2013-01-13 09:11:00,
2013-01-13 04:16:00,56.0,54.3,30.11,SW,218,0.0,0.0,94,0.01,,---,0.01,0.00,VWS V14.01,2013-01-13 09:16:00,
2013-01-13 04:21:00,56.1,54.4,30.11,SW,218,0.0,0.0,94,0.01,,---,0.01,0.00,VWS V14.01,2013-01-13 09:21:00,
2013-01-13 04:26:00,56.2,54.8,30.11,SW,218,0.0,0.0,95,0.01,,---,0.01,0.00,VWS V14.01,2013-01-13 09:26:00,
2013-01-13 04:31:00,56.2,54.8,30.11,SW,218,0.0,0.0,95,0.01,,---,0.01,0.00,VWS V14.01,2013-01-13 09:31:00,
2013-01-13 04:36:00,56.2,54.8,30.12,SW,218,0.0,0.0,95,0.00,,---,0.01,0.00,VWS V14.01,2013-01-13 09:36:00,
2013-01-13 04:41:00,56.3,54.9,30.11,SW,218,0.0,0.0,95,0.00,,---,0.01,0.00,VWS V14.01,2013-01-13 09:41:00,
2013-01-13 04:47:00,56.5,55.1,30.11,SW,218,0.0,0.0,95,0.00,,---,0.01,0.00,VWS V14.01,2013-01-13 09:47:00,
2013-01-13 04:52:00,56.6,55.2,30.11,SW,218,0.0,0.0,95,0.00,,---,0.01,0.00,VWS V14.01,2013-01-13 09:52:00,
2013-01-13 04:57:00,56.8,55.7,30.11,SW,218,0.0,0.0,96,0.00,,---,0.01,0.00,VWS V14.01,2013-01-13 09:57:00,
2013-01-13 05:02:00,56.9,55.5,30.11,SW,218,0.0,0.0,95,0.00,,---,0.01,0.00,VWS V14.01,2013-01-13 10:02:00,
2013-01-13 05:07:00,56.8,55.4,30.11,SW,218,0.0,0.0,95,0.00,,---,0.01,0.00,VWS V14.01,2013-01-13 10:07:00,
2013-01-13 05:12:00,56.6,55.2,30.11,SW,218,0.0,0.0,95,0.00,,---,0.01,0.00,VWS V14.01,2013-01-13 10:12:00,
2013-01-13 05:17:00,56.2,54.8,30.10,SW,218,1.0,1.0,95,0.00,,---,0.01,0.00,VWS V14.01,2013-01-13 10:17:00,
2013-01-13 05:22:00,56.2,54.8,30.10,SW,218,0.0,0.0,95,0.00,,---,0.01,0.00,VWS V14.01,2013-01-13 10:22:00,
2013-01-13 05:27:00,56.1,54.7,30.10,SW,218,0.0,0.0,95,0.00,,---,0.01,0.00,VWS V14.01,2013-01-13 10:27:00,
2013-01-13 05:32:00,56.2,55.1,30.10,SW,218,0.0,0.0,96,0.00,,---,0.01,0.00,VWS V14.01,2013-01-13 10:32:00,
2013-01-13 05:37:00,56.3,55.2,30.10,SW,218,0.0,0.0,96,0.00,,---,0.01,0.00,VWS V14.01,2013-01-13 10:37:00,
2013-01-13 05:44:00,56.0,54.6,30.10,SW,218,0.0,0.0,95,0.00,,---,0.01,0.00,VWS V14.01,2013-01-13 10:44:00,
2013-01-13 05:49:00,55.9,54.5,30.11,SW,218,0.0,0.0,95,0.00,,---,0.01,0.00,VWS V14.01,2013-01-13 10:49:00,
2013-01-13 05:54:00,55.7,54.3,30.10,SW,218,0.0,0.0,95,0.00,,---,0.01,0.00,VWS V14.01,2013-01-13 10:54:00,
2013-01-13 05:59:00,55.6,54.2,30.11,SW,218,0.0,0.0,95,0.00,,---,0.01,0.00,VWS V14.01,2013-01-13 10:59:00,
2013-01-13 06:04:00,55.5,54.1,30.11,SW,218,0.0,0.0,95,0.00,,---,0.01,0.00,VWS V14.01,2013-01-13 11:04:00,
2013-01-13 06:09:00,55.3,53.9,30.11,SW,218,0.0,0.0,95,0.00,,---,0.01,0.00,VWS V14.01,2013-01-13 11:09:00,
2013-01-13 06:14:00,55.1,53.7,30.11,SW,218,0.0,0.0,95,0.00,,---,0.01,0.00,VWS V14.01,2013-01-13 11:14:00,
2013-01-13 06:19:00,55.0,53.6,30.11,SW,218,0.0,0.0,95,0.00,,---,0.01,0.00,VWS V14.01,2013-01-13 11:19:00,
2013-01-13 06:24:00,54.8,53.4,30.11,SW,218,0.0,0.0,95,0.00,,---,0.01,0.00,VWS V14.01,2013-01-13 11:24:00,
2013-01-13 06:29:00,54.6,53.2,30.12,SW,218,0.0,0.0,95,0.00,,---,0.01,0.00,VWS V14.01,2013-01-13 11:29:00,
2013-01-13 06:35:00,54.4,53.0,30.12,SW,218,0.0,1.0,95,0.00,,---,0.01,0.00,VWS V14.01,2013-01-13 11:35:00,
2013-01-13 06:40:00,54.0,52.6,30.12,SW,218,0.0,0.0,95,0.00,,---,0.01,0.00,VWS V14.01,2013-01-13 11:40:00,
2013-01-13 06:45:00,53.8,52.4,30.12,SW,218,0.0,0.0,95,0.00,,---,0.01,0.00,VWS V14.01,2013-01-13 11:45:00,
2013-01-13 06:50:00,53.5,52.1,30.12,SW,218,0.0,0.0,95,0.00,,---,0.01,0.00,VWS V14.01,2013-01-13 11:50:00,
2013-01-13 06:55:00,53.5,52.1,30.12,SW,218,0.0,0.0,95,0.00,,---,0.01,0.00,VWS V14.01,2013-01-13 11:55:00,
2013-01-13 07:00:00,53.4,52.0,30.12,SW,218,0.0,0.0,95,0.00,,---,0.01,0.00,VWS V14.01,2013-01-13 12:00:00,
2013-01-13 07:05:00,53.1,51.7,30.12,SW,218,1.0,1.0,95,0.00,,---,0.01,0.00,VWS V14.01,2013-01-13 12:05:00,
2013-01-13 07:10:00,53.0,51.6,30.12,SW,218,0.0,0.0,95,0.00,,---,0.01,0.00,VWS V14.01,2013-01-13 12:10:00,
2013-01-13 07:15:00,52.8,51.4,30.13,SW,218,0.0,1.0,95,0.00,,---,0.01,0.00,VWS V14.01,2013-01-13 12:15:00,
2013-01-13 07:20:00,52.6,51.2,30.13,SW,218,0.0,0.0,95,0.00,,---,0.01,0.00,VWS V14.01,2013-01-13 12:20:00,
2013-01-13 07:25:00,52.5,51.1,30.13,SW,218,0.0,2.0,95,0.00,,---,0.01,5.00,VWS V14.01,2013-01-13 12:25:00,
2013-01-13 07:30:00,52.4,51.0,30.14,SW,218,0.0,1.0,95,0.00,,---,0.01,5.00,VWS V14.01,2013-01-13 12:30:00,
2013-01-13 07:35:00,52.2,50.8,30.14,SW,218,0.0,0.0,95,0.00,,---,0.01,9.00,VWS V14.01,2013-01-13 12:35:00,
2013-01-13 07:40:00,52.0,50.6,30.15,SW,218,0.0,0.0,95,0.00,,---,0.01,18.00,VWS V14.01,2013-01-13 12:40:00,
2013-01-13 07:46:00,51.9,50.5,30.15,SW,218,0.0,0.0,95,0.00,,---,0.01,25.00,VWS V14.01,2013-01-13 12:46:00,
2013-01-13 07:51:00,52.1,51.0,30.15,SW,218,0.0,0.0,96,0.00,,---,0.01,35.00,VWS V14.01,2013-01-13 12:51:00,
2013-01-13 07:56:00,52.3,51.2,30.15,SW,218,0.0,0.0,96,0.00,,---,0.01,39.00,VWS V14.01,2013-01-13 12:56:00,
2013-01-13 08:01:00,52.5,51.4,30.15,SW,218,0.0,0.0,96,0.00,,---,0.01,35.00,VWS V14.01,2013-01-13 13:01:00,
2013-01-13 08:06:00,52.8,51.7,30.15,SW,218,0.0,0.0,96,0.00,,---,0.01,33.00,VWS V14.01,2013-01-13 13:06:00,
2013-01-13 08:11:00,53.2,52.1,30.15,SW,218,0.0,0.0,96,0.00,,---,0.01,39.00,VWS V14.01,2013-01-13 13:11:00,
2013-01-13 08:16:00,53.4,52.3,30.15,SW,218,0.0,0.0,96,0.00,,---,0.01,46.00,VWS V14.01,2013-01-13 13:16:00,
2013-01-13 08:21:00,53.7,52.6,30.16,SW,218,0.0,0.0,96,0.00,,---,0.01,60.00,VWS V14.01,2013-01-13 13:21:00,
2013-01-13 08:26:00,54.1,53.0,30.16,SW,218,0.0,0.0,96,0.00,,---,0.01,88.00,VWS V14.01,2013-01-13 13:26:00,
2013-01-13 08:31:00,54.4,53.3,30.16,SW,218,0.0,0.0,96,0.00,,---,0.01,123.00,VWS V14.01,2013-01-13 13:31:00,
2013-01-13 08:36:00,54.6,53.5,30.16,SW,218,0.0,0.0,96,0.00,,---,0.01,142.00,VWS V14.01,2013-01-13 13:36:00,
2013-01-13 08:41:00,55.2,54.4,30.16,SW,218,0.0,0.0,97,0.00,,---,0.01,148.00,VWS V14.01,2013-01-13 13:41:00,
2013-01-13 08:46:00,55.7,54.9,30.16,SW,218,0.0,0.0,97,0.00,,---,0.01,97.00,VWS V14.01,2013-01-13 13:46:00,
2013-01-13 08:51:00,56.1,55.3,30.16,SW,218,0.0,0.0,97,0.00,,---,0.01,137.00,VWS V14.01,2013-01-13 13:51:00,
2013-01-13 08:56:00,56.6,55.8,30.16,SW,218,0.0,0.0,97,0.00,,---,0.01,137.00,VWS V14.01,2013-01-13 13:56:00,
2013-01-13 09:01:00,57.1,56.3,30.17,SW,218,0.0,0.0,97,0.00,,---,0.01,114.00,VWS V14.01,2013-01-13 14:01:00,
2013-01-13 09:07:00,57.6,56.8,30.16,SW,218,0.0,0.0,97,0.00,,---,0.01,123.00,VWS V14.01,2013-01-13 14:07:00,
2013-01-13 09:12:00,58.0,57.2,30.17,SW,218,0.0,0.0,97,0.00,,---,0.01,107.00,VWS V14.01,2013-01-13 14:12:00,
2013-01-13 09:17:00,58.4,57.6,30.17,SW,218,0.0,0.0,97,0.00,,---,0.01,98.00,VWS V14.01,2013-01-13 14:17:00,
2013-01-13 09:22:00,58.7,57.8,30.17,SW,218,0.0,0.0,97,0.00,,---,0.01,120.00,VWS V14.01,2013-01-13 14:22:00,
2013-01-13 09:27:00,59.0,58.2,30.17,SW,218,0.0,0.0,97,0.00,,---,0.01,148.00,VWS V14.01,2013-01-13 14:27:00,
2013-01-13 09:32:00,59.3,58.5,30.17,SW,218,0.0,1.0,97,0.00,,---,0.01,116.00,VWS V14.01,2013-01-13 14:32:00,
2013-01-13 09:37:00,59.5,58.7,30.17,SW,218,1.0,1.0,97,0.00,,---,0.01,104.00,VWS V14.01,2013-01-13 14:37:00,
2013-01-13 09:42:00,59.7,58.8,30.17,SW,218,0.0,0.0,97,0.00,,---,0.01,207.00,VWS V14.01,2013-01-13 14:42:00,
2013-01-13 09:47:00,60.0,59.2,30.17,SW,218,0.0,0.0,97,0.00,,---,0.01,221.00,VWS V14.01,2013-01-13 14:47:00,
2013-01-13 09:52:00,60.2,59.3,30.17,SW,218,0.0,0.0,97,0.00,,---,0.01,135.00,VWS V14.01,2013-01-13 14:52:00,
2013-01-13 09:57:00,60.2,59.3,30.17,SW,218,0.0,0.0,97,0.00,,---,0.01,132.00,VWS V14.01,2013-01-13 14:57:00,
2013-01-13 10:02:00,60.3,59.5,30.17,SW,218,0.0,0.0,97,0.00,,---,0.01,132.00,VWS V14.01,2013-01-13 15:02:00,
2013-01-13 10:07:00,60.5,59.7,30.17,SW,218,0.0,0.0,97,0.00,,---,0.01,125.00,VWS V14.01,2013-01-13 15:07:00,
2013-01-13 10:13:00,60.7,59.8,30.17,SW,218,0.0,0.0,97,0.00,,---,0.01,134.00,VWS V14.01,2013-01-13 15:13:00,
2013-01-13 10:18:00,60.8,60.0,30.17,SW,218,0.0,0.0,97,0.00,,---,0.01,98.00,VWS V14.01,2013-01-13 15:18:00,
2013-01-13 10:23:00,61.0,60.2,30.17,SW,218,0.0,0.0,97,0.00,,---,0.01,253.00,VWS V14.01,2013-01-13 15:23:00,
2013-01-13 10:28:00,61.4,60.5,30.17,SW,218,0.0,0.0,97,0.00,,---,0.01,360.00,VWS V14.01,2013-01-13 15:28:00,
2013-01-13 10:33:00,61.9,61.0,30.16,SW,218,0.0,0.0,97,0.00,,---,0.01,417.00,VWS V14.01,2013-01-13 15:33:00,
2013-01-13 10:38:00,63.0,62.1,30.16,SW,218,0.0,0.0,97,0.00,,---,0.01,450.00,VWS V14.01,2013-01-13 15:38:00,
2013-01-13 10:43:00,64.1,63.2,30.16,WSW,244,3.0,5.0,97,0.00,,---,0.01,482.00,VWS V14.01,2013-01-13 15:43:00,
2013-01-13 10:48:00,65.7,64.8,30.16,WSW,238,1.0,4.0,97,0.00,,---,0.01,482.00,VWS V14.01,2013-01-13 15:48:00,
2013-01-13 10:53:00,66.9,64.8,30.16,WSW,244,2.0,4.0,93,0.00,,---,0.01,243.00,VWS V14.01,2013-01-13 15:53:00,
2013-01-13 10:58:00,67.4,64.7,30.16,SW,232,2.0,7.0,91,0.00,,---,0.01,387.00,VWS V14.01,2013-01-13 15:58:00,
2013-01-13 11:04:00,68.3,64.9,30.16,WSW,238,2.0,7.0,89,0.00,,---,0.01,670.00,VWS V14.01,2013-01-13 16:04:00,
2013-01-13 11:09:00,69.9,65.2,30.16,SSW,202,2.0,6.0,85,0.00,,---,0.01,308.00,VWS V14.01,2013-01-13 16:09:00,
2013-01-13 11:14:00,70.5,65.1,30.15,SSW,208,0.0,6.0,83,0.00,,---,0.01,237.00,VWS V14.01,2013-01-13 16:14:00,
2013-01-13 11:19:00,70.8,64.7,30.15,SSW,212,4.0,6.0,81,0.00,,---,0.01,241.00,VWS V14.01,2013-01-13 16:19:00,
2013-01-13 11:24:00,71.6,64.8,30.14,SW,214,4.0,7.0,79,0.00,,---,0.01,512.00,VWS V14.01,2013-01-13 16:24:00,
2013-01-13 11:29:00,72.4,65.2,30.14,SSE,168,2.0,6.0,78,0.00,,---,0.01,471.00,VWS V14.01,2013-01-13 16:29:00,
2013-01-13 11:34:00,73.0,65.4,30.14,SSW,209,1.0,7.0,77,0.00,,---,0.01,526.00,VWS V14.01,2013-01-13 16:34:00,
2013-01-13 11:39:00,73.3,65.3,30.14,SW,217,2.0,8.0,76,0.00,,---,0.01,476.00,VWS V14.01,2013-01-13 16:39:00,
2013-01-13 11:44:00,73.9,65.1,30.13,SSW,212,6.0,10.0,74,0.00,,---,0.01,450.00,VWS V14.01,2013-01-13 16:44:00,
2013-01-13 11:50:00,73.9,65.1,30.12,SW,221,3.0,7.0,74,0.00,,---,0.01,392.00,VWS V14.01,2013-01-13 16:50:00,
2013-01-13 11:55:00,74.6,65.8,30.12,SSW,204,2.0,10.0,74,0.00,,---,0.01,360.00,VWS V14.01,2013-01-13 16:55:00,
2013-01-13 12:00:00,74.8,65.2,30.12,SW,218,8.0,12.0,72,0.00,,---,0.01,350.00,VWS V14.01,2013-01-13 17:00:00,
2013-01-13 12:05:00,74.6,65.0,30.11,SSW,200,3.0,15.0,72,0.00,,---,0.01,392.00,VWS V14.01,2013-01-13 17:05:00,
2013-01-13 12:10:00,74.6,64.6,30.11,SW,229,11.0,13.0,71,0.00,,---,0.01,411.00,VWS V14.01,2013-01-13 17:10:00,
2013-01-13 12:15:00,74.9,64.9,30.10,SSW,207,9.0,12.0,71,0.00,,---,0.01,613.00,VWS V14.01,2013-01-13 17:15:00,
2013-01-13 12:20:00,75.4,64.9,30.11,SSW,209,7.0,9.0,70,0.00,,---,0.01,418.00,VWS V14.01,2013-01-13 17:20:00,
2013-01-13 12:25:00,75.7,64.8,30.11,WSW,238,9.0,11.0,69,0.00,,---,0.01,686.00,VWS V14.01,2013-01-13 17:25:00,
2013-01-13 12:30:00,76.2,64.9,30.10,SSW,212,8.0,14.0,68,0.00,,---,0.01,446.00,VWS V14.01,2013-01-13 17:30:00,
2013-01-13 12:35:00,75.8,64.5,30.10,SSW,210,6.0,14.0,68,0.00,,---,0.01,244.00,VWS V14.01,2013-01-13 17:35:00,
2013-01-13 12:40:00,75.4,64.5,30.09,WSW,241,10.0,11.0,69,0.00,,---,0.01,302.00,VWS V14.01,2013-01-13 17:40:00,
2013-01-13 12:45:00,75.2,63.9,30.09,SW,216,4.0,11.0,68,0.00,,---,0.01,480.00,VWS V14.01,2013-01-13 17:45:00,
2013-01-13 12:50:00,75.4,64.5,30.09,SSW,209,4.0,12.0,69,0.00,,---,0.01,364.00,VWS V14.01,2013-01-13 17:50:00,
2013-01-13 12:56:00,75.7,64.8,30.09,West,269,4.0,11.0,69,0.00,,---,0.01,353.00,VWS V14.01,2013-01-13 17:56:00,
2013-01-13 13:01:00,76.1,64.8,30.09,SSW,202,8.0,12.0,68,0.00,,---,0.01,345.00,VWS V14.01,2013-01-13 18:01:00,
2013-01-13 13:06:00,76.1,64.8,30.08,SW,228,7.0,11.0,68,0.00,,---,0.01,330.00,VWS V14.01,2013-01-13 18:06:00,
2013-01-13 13:11:00,75.9,64.6,30.09,SW,221,5.0,11.0,68,0.00,,---,0.01,288.00,VWS V14.01,2013-01-13 18:11:00,
2013-01-13 13:16:00,76.0,64.7,30.08,SSW,202,6.0,12.0,68,0.00,,---,0.01,281.00,VWS V14.01,2013-01-13 18:16:00,
2013-01-13 13:21:00,76.1,65.2,30.08,SW,220,6.0,9.0,69,0.00,,---,0.01,332.00,VWS V14.01,2013-01-13 18:21:00,
2013-01-13 13:26:00,76.4,64.6,30.08,SW,219,8.0,11.0,67,0.00,,---,0.01,339.00,VWS V14.01,2013-01-13 18:26:00,
2013-01-13 13:31:00,76.4,64.6,30.08,WSW,247,6.0,11.0,67,0.00,,---,0.01,355.00,VWS V14.01,2013-01-13 18:31:00,
2013-01-13 13:36:00,76.5,64.7,30.08,SSW,198,7.0,11.0,67,0.00,,---,0.01,304.00,VWS V14.01,2013-01-13 18:36:00,
2013-01-13 13:41:00,76.8,65.0,30.08,SSW,198,4.0,10.0,67,0.00,,---,0.01,311.00,VWS V14.01,2013-01-13 18:41:00,
2013-01-13 13:46:00,76.9,64.7,30.07,SW,223,4.0,9.0,66,0.00,,---,0.01,295.00,VWS V14.01,2013-01-13 18:46:00,
2013-01-13 13:51:00,76.8,64.6,30.07,SSW,203,3.0,11.0,66,0.00,,---,0.01,265.00,VWS V14.01,2013-01-13 18:51:00,
2013-01-13 13:56:00,77.1,64.4,30.08,WSW,237,5.0,12.0,65,0.00,,---,0.01,278.00,VWS V14.01,2013-01-13 18:56:00,
2013-01-13 14:01:00,77.1,64.4,30.07,SW,228,4.0,9.0,65,0.00,,---,0.01,267.00,VWS V14.01,2013-01-13 19:01:00,
2013-01-13 14:06:00,76.9,64.7,30.07,South,191,6.0,9.0,66,0.00,,---,0.01,343.00,VWS V14.01,2013-01-13 19:06:00,
2013-01-13 14:11:00,76.9,64.7,30.08,WSW,243,11.0,13.0,66,0.00,,---,0.01,251.00,VWS V14.01,2013-01-13 19:11:00,
2013-01-13 14:16:00,76.7,64.5,30.07,SW,232,4.0,12.0,66,0.00,,---,0.01,258.00,VWS V14.01,2013-01-13 19:16:00,
2013-01-13 14:21:00,76.8,64.6,30.08,SW,232,7.0,11.0,66,0.00,,---,0.01,244.00,VWS V14.01,2013-01-13 19:21:00,
2013-01-13 14:26:00,76.9,65.1,30.08,SW,215,6.0,9.0,67,0.00,,---,0.01,250.00,VWS V14.01,2013-01-13 19:26:00,
2013-01-13 14:31:00,77.3,65.1,30.08,SSE,159,0.0,9.0,66,0.00,,---,0.01,336.00,VWS V14.01,2013-01-13 19:31:00,
2013-01-13 14:36:00,77.8,66.0,30.07,South,171,1.0,8.0,67,0.00,,---,0.01,438.00,VWS V14.01,2013-01-13 19:36:00,
2013-01-13 14:41:00,77.9,65.2,30.07,ESE,114,2.0,9.0,65,0.00,,---,0.01,253.00,VWS V14.01,2013-01-13 19:41:00,
2013-01-13 14:46:00,77.5,64.8,30.07,SSW,212,5.0,9.0,65,0.00,,---,0.01,148.00,VWS V14.01,2013-01-13 19:46:00,
2013-01-13 14:51:00,77.1,64.4,30.08,SSW,212,6.0,13.0,65,0.00,,---,0.01,195.00,VWS V14.01,2013-01-13 19:51:00,
2013-01-13 14:56:00,77.4,65.2,30.08,SW,235,5.0,12.0,66,0.00,,---,0.01,508.00,VWS V14.01,2013-01-13 19:56:00,
2013-01-13 15:01:00,78.2,64.6,30.07,South,191,4.0,9.0,63,0.00,,---,0.01,248.00,VWS V14.01,2013-01-13 20:01:00,
2013-01-13 15:06:00,78.0,64.8,30.07,SSW,201,3.0,10.0,64,0.00,,---,0.01,153.00,VWS V14.01,2013-01-13 20:06:00,
2013-01-13 15:11:00,77.7,64.6,30.08,SW,217,8.0,11.0,64,0.00,,---,0.01,248.00,VWS V14.01,2013-01-13 20:11:00,
2013-01-13 15:16:00,77.6,64.9,30.07,SE,146,2.0,8.0,65,0.00,,---,0.01,213.00,VWS V14.01,2013-01-13 20:16:00,
2013-01-13 15:21:00,77.5,64.4,30.08,South,178,6.0,10.0,64,0.00,,---,0.01,137.00,VWS V14.01,2013-01-13 20:21:00,
2013-01-13 15:27:00,77.2,64.5,30.08,SSW,195,0.0,0.0,65,0.00,,---,0.01,162.00,VWS V14.01,2013-01-13 20:27:00,
2013-01-13 15:32:00,77.0,64.3,30.08,SSW,205,6.0,9.0,65,0.00,,---,0.01,146.00,VWS V14.01,2013-01-13 20:32:00,
2013-01-13 15:37:00,76.7,64.5,30.09,SW,219,8.0,8.0,66,0.00,,---,0.01,211.00,VWS V14.01,2013-01-13 20:37:00,
2013-01-13 15:42:00,76.7,64.9,30.09,SSW,201,0.0,2.0,67,0.00,,---,0.01,204.00,VWS V14.01,2013-01-13 20:42:00,
2013-01-13 15:47:00,76.9,64.7,30.09,SSW,205,6.0,7.0,66,0.00,,---,0.01,185.00,VWS V14.01,2013-01-13 20:47:00,
2013-01-13 15:52:00,77.1,64.9,30.09,SSW,207,4.0,4.0,66,0.00,,---,0.01,169.00,VWS V14.01,2013-01-13 20:52:00,
2013-01-13 15:57:00,77.3,64.6,30.09,SSW,194,0.0,0.0,65,0.00,,---,0.01,153.00,VWS V14.01,2013-01-13 20:57:00,
2013-01-13 16:02:00,77.3,64.2,30.09,SSW,213,8.0,10.0,64,0.00,,---,0.01,120.00,VWS V14.01,2013-01-13 21:02:00,
2013-01-13 16:07:00,77.0,63.9,30.08,SW,228,6.0,7.0,64,0.00,,---,0.01,97.00,VWS V14.01,2013-01-13 21:07:00,
2013-01-13 16:12:00,76.8,64.2,30.09,SSW,213,0.0,2.0,65,0.00,,---,0.01,102.00,VWS V14.01,2013-01-13 21:12:00,
2013-01-13 16:17:00,76.6,64.4,30.09,South,186,2.0,4.0,66,0.00,,---,0.01,90.00,VWS V14.01,2013-01-13 21:17:00,
2013-01-13 16:22:00,76.4,64.2,30.09,SW,214,3.0,3.0,66,0.00,,---,0.01,84.00,VWS V14.01,2013-01-13 21:22:00,
2013-01-13 16:27:00,76.2,64.4,30.09,SSW,205,0.0,1.0,67,0.00,,---,0.01,84.00,VWS V14.01,2013-01-13 21:27:00,
2013-01-13 16:33:00,76.1,64.4,30.09,SSW,203,0.0,1.0,67,0.00,,---,0.01,83.00,VWS V14.01,2013-01-13 21:33:00,
2013-01-13 16:38:00,76.0,64.7,30.09,SSW,204,0.0,0.0,68,0.00,,---,0.01,76.00,VWS V14.01,2013-01-13 21:38:00,
2013-01-13 16:43:00,75.9,65.0,30.08,SSW,193,2.0,3.0,69,0.00,,---,0.01,74.00,VWS V14.01,2013-01-13 21:43:00,
2013-01-13 16:48:00,75.7,64.8,30.08,SE,144,0.0,2.0,69,0.00,,---,0.01,74.00,VWS V14.01,2013-01-13 21:48:00,
2013-01-13 16:53:00,75.6,64.7,30.08,SE,145,0.0,0.0,69,0.00,,---,0.01,72.00,VWS V14.01,2013-01-13 21:53:00,
2013-01-13 16:58:00,75.4,64.9,30.08,SE,146,0.0,0.0,70,0.00,,---,0.01,51.00,VWS V14.01,2013-01-13 21:58:00,
2013-01-13 17:03:00,75.2,64.8,30.09,SE,146,0.0,0.0,70,0.00,,---,0.01,40.00,VWS V14.01,2013-01-13 22:03:00,
2013-01-13 17:08:00,75.1,64.7,30.09,SE,146,1.0,4.0,70,0.00,,---,0.01,40.00,VWS V14.01,2013-01-13 22:08:00,
2013-01-13 17:13:00,74.9,64.5,30.09,SE,146,0.0,0.0,70,0.00,,---,0.01,37.00,VWS V14.01,2013-01-13 22:13:00,
2013-01-13 17:18:00,74.7,64.7,30.09,SE,146,1.0,2.0,71,0.00,,---,0.01,26.00,VWS V14.01,2013-01-13 22:18:00,
2013-01-13 17:23:00,74.5,64.5,30.09,SE,146,0.0,4.0,71,0.00,,---,0.01,18.00,VWS V14.01,2013-01-13 22:23:00,
2013-01-13 17:28:00,74.2,64.6,30.09,SE,146,0.0,1.0,72,0.00,,---,0.01,11.00,VWS V14.01,2013-01-13 22:28:00,
2013-01-13 17:33:00,74.0,64.4,30.09,SE,146,1.0,4.0,72,0.00,,---,0.01,5.00,VWS V14.01,2013-01-13 22:33:00,
2013-01-13 17:38:00,73.7,64.1,30.09,SE,146,0.0,2.0,72,0.00,,---,0.01,0.00,VWS V14.01,2013-01-13 22:38:00,
2013-01-13 17:44:00,73.4,64.2,30.09,SE,146,0.0,0.0,73,0.00,,---,0.01,0.00,VWS V14.01,2013-01-13 22:44:00,
2013-01-13 17:49:00,73.1,63.9,30.09,SSE,150,0.0,4.0,73,0.00,,---,0.01,0.00,VWS V14.01,2013-01-13 22:49:00,
2013-01-13 17:54:00,72.8,64.0,30.09,SSE,148,0.0,0.0,74,0.00,,---,0.01,0.00,VWS V14.01,2013-01-13 22:54:00,
2013-01-13 17:59:00,72.4,64.0,30.09,SSE,148,1.0,2.0,75,0.00,,---,0.01,0.00,VWS V14.01,2013-01-13 22:59:00,
2013-01-13 18:04:00,72.1,63.8,30.09,SSE,148,0.0,1.0,75,0.00,,---,0.01,0.00,VWS V14.01,2013-01-13 23:04:00,
2013-01-13 18:09:00,71.9,63.5,30.08,SSE,148,0.0,1.0,75,0.00,,---,0.01,0.00,VWS V14.01,2013-01-13 23:09:00,
2013-01-13 18:14:00,71.7,63.7,30.09,SSE,148,0.0,1.0,76,0.00,,---,0.01,0.00,VWS V14.01,2013-01-13 23:14:00,
2013-01-13 18:19:00,71.5,63.5,30.09,SSE,148,0.0,0.0,76,0.00,,---,0.01,0.00,VWS V14.01,2013-01-13 23:19:00,
2013-01-13 18:24:00,71.2,63.3,30.09,SSE,148,0.0,0.0,76,0.00,,---,0.01,0.00,VWS V14.01,2013-01-13 23:24:00,
2013-01-13 18:29:00,71.0,63.4,30.09,SSE,148,0.0,0.0,77,0.00,,---,0.01,0.00,VWS V14.01,2013-01-13 23:29:00,
2013-01-13 18:34:00,70.8,63.2,30.09,SSE,147,0.0,2.0,77,0.00,,---,0.01,0.00,VWS V14.01,2013-01-13 23:34:00,
2013-01-13 18:39:00,70.6,63.0,30.09,SSE,147,0.0,0.0,77,0.00,,---,0.01,0.00,VWS V14.01,2013-01-13 23:39:00,
2013-01-13 18:44:00,70.4,63.2,30.09,SSE,147,0.0,0.0,78,0.00,,---,0.01,0.00,VWS V14.01,2013-01-13 23:44:00,
2013-01-13 18:50:00,70.3,63.1,30.10,SSE,147,0.0,0.0,78,0.00,,---,0.01,0.00,VWS V14.01,2013-01-13 23:50:00,
2013-01-13 18:55:00,70.1,62.9,30.10,SSE,147,0.0,0.0,78,0.00,,---,0.01,0.00,VWS V14.01,2013-01-13 23:55:00,
2013-01-13 19:00:00,70.0,63.2,30.10,SSE,147,0.0,0.0,79,0.00,,---,0.01,0.00,VWS V14.01,2013-01-14 00:00:00,
2013-01-13 19:05:00,69.8,63.0,30.10,SE,146,0.0,2.0,79,0.00,,---,0.01,0.00,VWS V14.01,2013-01-14 00:05:00,
2013-01-13 19:10:00,69.7,62.9,30.09,SE,146,0.0,2.0,79,0.00,,---,0.01,0.00,VWS V14.01,2013-01-14 00:10:00,
2013-01-13 19:15:00,69.5,63.1,30.09,SE,146,0.0,1.0,80,0.00,,---,0.01,0.00,VWS V14.01,2013-01-14 00:15:00,
2013-01-13 19:20:00,69.4,63.0,30.09,SE,146,0.0,0.0,80,0.00,,---,0.01,0.00,VWS V14.01,2013-01-14 00:20:00,
2013-01-13 19:25:00,69.2,62.8,30.10,SE,146,0.0,2.0,80,0.00,,---,0.01,0.00,VWS V14.01,2013-01-14 00:25:00,
2013-01-13 19:30:00,69.0,62.9,30.09,SE,146,0.0,4.0,81,0.00,,---,0.01,0.00,VWS V14.01,2013-01-14 00:30:00,
2013-01-13 19:35:00,68.9,62.8,30.09,SSE,147,1.0,4.0,81,0.00,,---,0.01,0.00,VWS V14.01,2013-01-14 00:35:00,
2013-01-13 19:40:00,68.7,62.6,30.09,SE,146,1.0,5.0,81,0.00,,---,0.01,0.00,VWS V14.01,2013-01-14 00:40:00,
2013-01-13 19:45:00,68.6,62.5,30.09,SSE,147,0.0,1.0,81,0.00,,---,0.01,0.00,VWS V14.01,2013-01-14 00:45:00,
2013-01-13 19:51:00,68.5,62.5,30.09,SSE,155,1.0,6.0,81,0.00,,---,0.01,0.00,VWS V14.01,2013-01-14 00:51:00,
2013-01-13 19:56:00,68.4,62.3,30.09,SSE,153,0.0,6.0,81,0.00,,---,0.01,0.00,VWS V14.01,2013-01-14 00:56:00,
2013-01-13 20:01:00,68.2,62.5,30.09,SSE,153,0.0,2.0,82,0.00,,---,0.01,0.00,VWS V14.01,2013-01-14 01:01:00,
2013-01-13 20:06:00,68.1,62.4,30.09,SE,142,0.0,5.0,82,0.00,,---,0.01,0.00,VWS V14.01,2013-01-14 01:06:00,
2013-01-13 20:11:00,67.9,62.2,30.09,SSE,157,4.0,4.0,82,0.00,,---,0.01,0.00,VWS V14.01,2013-01-14 01:11:00,
2013-01-13 20:16:00,67.8,62.1,30.09,SSE,151,1.0,4.0,82,0.00,,---,0.01,0.00,VWS V14.01,2013-01-14 01:16:00,
2013-01-13 20:21:00,67.7,62.0,30.09,SSE,150,0.0,4.0,82,0.00,,---,0.01,0.00,VWS V14.01,2013-01-14 01:21:00,
2013-01-13 20:26:00,67.5,61.8,30.09,SSE,148,0.0,4.0,82,0.00,,---,0.01,0.00,VWS V14.01,2013-01-14 01:26:00,
2013-01-13 20:31:00,67.3,62.0,30.09,SSE,147,1.0,5.0,83,0.00,,---,0.01,0.00,VWS V14.01,2013-01-14 01:31:00,
2013-01-13 20:36:00,67.2,61.9,30.10,SSE,157,0.0,4.0,83,0.00,,---,0.01,0.00,VWS V14.01,2013-01-14 01:36:00,
2013-01-13 20:41:00,67.0,61.7,30.10,SSE,157,4.0,6.0,83,0.00,,---,0.01,0.00,VWS V14.01,2013-01-14 01:41:00,
2013-01-13 20:46:00,66.9,61.6,30.10,SSE,155,2.0,4.0,83,0.00,,---,0.01,0.00,VWS V14.01,2013-01-14 01:46:00,
2013-01-13 20:51:00,66.8,61.5,30.10,SSE,155,1.0,2.0,83,0.00,,---,0.01,0.00,VWS V14.01,2013-01-14 01:51:00,
2013-01-13 20:56:00,66.7,61.7,30.10,SSE,155,0.0,4.0,84,0.00,,---,0.01,0.00,VWS V14.01,2013-01-14 01:56:00,
2013-01-13 21:01:00,66.6,61.6,30.11,SSE,155,0.0,0.0,84,0.00,,---,0.01,0.00,VWS V14.01,2013-01-14 02:01:00,
2013-01-13 21:06:00,66.5,61.5,30.10,SSE,154,0.0,1.0,84,0.00,,---,0.01,0.00,VWS V14.01,2013-01-14 02:06:00,
2013-01-13 21:11:00,66.3,61.3,30.10,SSE,154,0.0,2.0,84,0.00,,---,0.01,0.00,VWS V14.01,2013-01-14 02:11:00,
2013-01-13 21:16:00,66.2,61.6,30.10,SSE,155,1.0,1.0,85,0.00,,---,0.01,0.00,VWS V14.01,2013-01-14 02:16:00,
2013-01-13 21:21:00,66.0,61.4,30.10,SSE,153,0.0,6.0,85,0.00,,---,0.01,0.00,VWS V14.01,2013-01-14 02:21:00,
2013-01-13 21:26:00,65.9,61.3,30.10,SSE,154,0.0,2.0,85,0.00,,---,0.01,0.00,VWS V14.01,2013-01-14 02:26:00,
2013-01-13 21:31:00,65.8,61.2,30.10,South,173,1.0,4.0,85,0.00,,---,0.01,0.00,VWS V14.01,2013-01-14 02:31:00,
2013-01-13 21:36:00,65.7,61.1,30.10,South,174,0.0,1.0,85,0.00,,---,0.01,0.00,VWS V14.01,2013-01-14 02:36:00,
2013-01-13 21:41:00,65.6,61.0,30.10,South,180,0.0,4.0,85,0.00,,---,0.01,0.00,VWS V14.01,2013-01-14 02:41:00,
2013-01-13 21:46:00,65.4,61.1,30.10,South,180,0.0,0.0,86,0.00,,---,0.01,0.00,VWS V14.01,2013-01-14 02:46:00,
2013-01-13 21:51:00,65.3,61.0,30.11,South,180,1.0,2.0,86,0.00,,---,0.01,0.00,VWS V14.01,2013-01-14 02:51:00,
2013-01-13 21:56:00,65.2,60.9,30.10,South,176,4.0,4.0,86,0.00,,---,0.01,0.00,VWS V14.01,2013-01-14 02:56:00,
2013-01-13 22:01:00,65.1,60.8,30.11,South,177,0.0,4.0,86,0.00,,---,0.01,0.00,VWS V14.01,2013-01-14 03:01:00,
2013-01-13 22:06:00,65.0,60.7,30.11,South,176,4.0,4.0,86,0.00,,---,0.01,0.00,VWS V14.01,2013-01-14 03:06:00,
2013-01-13 22:11:00,64.9,60.6,30.11,South,190,0.0,4.0,86,0.00,,---,0.01,0.00,VWS V14.01,2013-01-14 03:11:00,
2013-01-13 22:16:00,64.9,60.6,30.11,SSW,203,3.0,4.0,86,0.00,,---,0.01,0.00,VWS V14.01,2013-01-14 03:16:00,
2013-01-13 22:21:00,64.8,60.5,30.12,SW,217,1.0,4.0,86,0.00,,---,0.01,0.00,VWS V14.01,2013-01-14 03:21:00,
2013-01-13 22:26:00,64.8,60.5,30.12,SW,217,0.0,3.0,86,0.00,,---,0.01,0.00,VWS V14.01,2013-01-14 03:26:00,
2013-01-13 22:31:00,64.7,60.4,30.12,SW,215,2.0,3.0,86,0.00,,---,0.01,0.00,VWS V14.01,2013-01-14 03:31:00,
2013-01-13 22:36:00,64.7,60.4,30.12,SW,215,2.0,4.0,86,0.00,,---,0.01,0.00,VWS V14.01,2013-01-14 03:36:00,
2013-01-13 22:41:00,64.7,60.4,30.12,SW,214,0.0,3.0,86,0.00,,---,0.01,0.00,VWS V14.01,2013-01-14 03:41:00,
2013-01-13 22:46:00,64.6,60.3,30.12,SW,214,0.0,0.0,86,0.00,,---,0.01,0.00,VWS V14.01,2013-01-14 03:46:00,
2013-01-13 22:52:00,64.6,60.3,30.11,SSW,213,0.0,0.0,86,0.00,,---,0.01,0.00,VWS V14.01,2013-01-14 03:52:00,
2013-01-13 22:57:00,64.5,60.2,30.11,SSW,213,0.0,0.0,86,0.00,,---,0.01,0.00,VWS V14.01,2013-01-14 03:57:00,
2013-01-13 23:02:00,64.4,60.1,30.11,SSW,207,0.0,1.0,86,0.00,,---,0.01,0.00,VWS V14.01,2013-01-14 04:02:00,
2013-01-13 23:07:00,64.3,60.0,30.12,SSW,207,0.0,0.0,86,0.00,,---,0.01,0.00,VWS V14.01,2013-01-14 04:07:00,
2013-01-13 23:12:00,64.3,60.0,30.12,SSW,207,0.0,0.0,86,0.00,,---,0.01,0.00,VWS V14.01,2013-01-14 04:12:00,
2013-01-13 23:17:00,64.3,60.0,30.12,SSW,205,0.0,0.0,86,0.00,,---,0.01,0.00,VWS V14.01,2013-01-14 04:17:00,
2013-01-13 23:22:00,64.2,59.9,30.12,SSW,200,1.0,2.0,86,0.00,,---,0.01,0.00,VWS V14.01,2013-01-14 04:22:00,
2013-01-13 23:27:00,64.1,59.8,30.12,South,169,0.0,0.0,86,0.00,,---,0.01,0.00,VWS V14.01,2013-01-14 04:27:00,
2013-01-13 23:32:00,64.1,59.5,30.12,South,171,0.0,0.0,85,0.00,,---,0.01,0.00,VWS V14.01,2013-01-14 04:32:00,
2013-01-13 23:37:00,64.1,59.5,30.12,South,170,0.0,1.0,85,0.00,,---,0.01,0.00,VWS V14.01,2013-01-14 04:37:00,
2013-01-13 23:42:00,64.0,59.4,30.11,South,170,0.0,0.0,85,0.00,,---,0.01,0.00,VWS V14.01,2013-01-14 04:42:00,
2013-01-13 23:47:00,63.9,59.3,30.10,SE,144,1.0,5.0,85,0.00,,---,0.01,0.00,VWS V14.01,2013-01-14 04:47:00,
2013-01-13 23:52:00,63.8,59.2,30.11,South,180,1.0,2.0,85,0.00,,---,0.01,0.00,VWS V14.01,2013-01-14 04:52:00,
2013-01-13 23:57:00,63.8,59.2,30.11,SSW,192,0.0,0.0,85,0.00,,---,0.01,0.00,VWS V14.01,2013-01-14 04:57:00,